Time;durP1;ratioP1;P1;durP2;ratioP2;P2;SDS_P1;SDS_P2;PMS_P1;PMS_P2;Temp;Humidity;BMP_temperature;BMP_pressure;BME280_temperature;BME280_humidity;BME280_pressure;Samples;Min_cycle;Max_cycle;Signal;HPM_P1;HPM_P2
2022/08/30 00:03:23;;;;;;;21.73;9.90;;;;;;;;;;6220261;28;20048;-58
2022/08/30 00:06:25;;;;;;;22.17;9.18;;;;;;;;;;6217622;28;20440;-57
2022/08/30 00:09:26;;;;;;;24.60;8.77;;;;;;;;;;6221340;28;20563;-57
2022/08/30 00:12:27;;;;;;;22.38;9.02;;;;;;;;;;6218424;28;20066;-56
2022/08/30 00:15:28;;;;;;;21.53;9.00;;;;;;;;;;6218460;28;20116;-57
2022/08/30 00:18:29;;;;;;;22.58;8.93;;;;;;;;;;6220215;28;20056;-58
2022/08/30 00:21:30;;;;;;;20.75;8.93;;;;;;;;;;6217894;28;20062;-56
2022/08/30 00:24:30;;;;;;;20.00;8.75;;;;;;;;;;6220231;28;20033;-57
2022/08/30 00:27:31;;;;;;;22.00;9.43;;;;;;;;;;6217590;28;20128;-57
2022/08/30 00:30:32;;;;;;;19.05;9.20;;;;;;;;;;6221728;28;20046;-56
2022/08/30 00:33:33;;;;;;;21.73;9.00;;;;;;;;;;6221073;28;20137;-57
2022/08/30 00:36:33;;;;;;;23.02;9.65;;;;;;;;;;6215085;28;20041;-56
2022/08/30 00:39:34;;;;;;;22.17;8.75;;;;;;;;;;6222413;28;20061;-58
2022/08/30 00:42:35;;;;;;;23.52;9.05;;;;;;;;;;6220678;28;20056;-57
2022/08/30 00:45:37;;;;;;;24.02;9.20;;;;;;;;;;6220123;28;20038;-57
2022/08/30 00:48:43;;;;;;;19.05;8.68;;;;;;;;;;6221624;28;20042;-56
2022/08/30 00:51:44;;;;;;;23.23;9.23;;;;;;;;;;6222093;28;20177;-56
2022/08/30 00:54:46;;;;;;;23.65;9.45;;;;;;;;;;6220857;28;20049;-57
2022/08/30 00:57:49;;;;;;;20.42;8.75;;;;;;;;;;6220493;28;20066;-57
2022/08/30 01:00:53;;;;;;;20.98;9.98;;;;;;;;;;6220144;28;20045;-57
2022/08/30 01:03:54;;;;;;;19.67;9.13;;;;;;;;;;6240515;28;20054;-57
2022/08/30 01:06:56;;;;;;;26.38;10.15;;;;;;;;;;6239204;28;20059;-56
2022/08/30 01:09:56;;;;;;;26.08;11.00;;;;;;;;;;6227710;28;20100;-57
2022/08/30 01:12:58;;;;;;;19.92;9.25;;;;;;;;;;6221561;28;20508;-56
2022/08/30 01:15:59;;;;;;;22.50;9.30;;;;;;;;;;6216879;28;20056;-56
2022/08/30 01:19:00;;;;;;;26.52;11.10;;;;;;;;;;6220863;28;20077;-57
2022/08/30 01:22:16;;;;;;;23.67;10.03;;;;;;;;;;6222492;28;20141;-57
2022/08/30 01:25:23;;;;;;;25.60;9.90;;;;;;;;;;6226007;28;20366;-57
2022/08/30 01:28:27;;;;;;;24.88;10.38;;;;;;;;;;6223928;28;20520;-57
2022/08/30 01:31:27;;;;;;;23.75;10.20;;;;;;;;;;6224932;28;20046;-55
2022/08/30 01:34:28;;;;;;;21.25;9.02;;;;;;;;;;6225164;28;20470;-57
2022/08/30 01:37:31;;;;;;;21.63;9.57;;;;;;;;;;6222971;28;20045;-57
2022/08/30 01:40:32;;;;;;;23.10;9.05;;;;;;;;;;6222423;28;20133;-55
2022/08/30 01:43:32;;;;;;;21.30;9.07;;;;;;;;;;6226206;28;20050;-56
2022/08/30 01:46:37;;;;;;;22.80;9.77;;;;;;;;;;6222474;28;20110;-56
2022/08/30 01:49:39;;;;;;;19.38;8.25;;;;;;;;;;6222919;28;20482;-58
2022/08/30 01:52:40;;;;;;;21.33;9.48;;;;;;;;;;6223863;28;20400;-58
2022/08/30 01:55:41;;;;;;;25.38;9.98;;;;;;;;;;6224011;28;20041;-58
2022/08/30 01:58:42;;;;;;;24.07;9.50;;;;;;;;;;6222003;28;20377;-58
2022/08/30 02:01:43;;;;;;;25.48;9.65;;;;;;;;;;6223605;28;20050;-57
2022/08/30 02:04:46;;;;;;;20.63;9.05;;;;;;;;;;6221960;28;20048;-57
2022/08/30 02:07:46;;;;;;;23.13;9.13;;;;;;;;;;6223874;28;20052;-58
2022/08/30 02:10:47;;;;;;;24.33;8.90;;;;;;;;;;6222659;28;20416;-56
2022/08/30 02:13:47;;;;;;;22.20;9.07;;;;;;;;;;6223067;28;20045;-56
2022/08/30 02:16:48;;;;;;;22.48;9.30;;;;;;;;;;6223341;28;20033;-56
2022/08/30 02:19:49;;;;;;;22.45;9.55;;;;;;;;;;6223942;28;20493;-57
2022/08/30 02:22:49;;;;;;;19.83;8.80;;;;;;;;;;6225034;28;20042;-55
2022/08/30 02:25:50;;;;;;;20.63;9.25;;;;;;;;;;6225209;28;21720;-58
2022/08/30 02:28:52;;;;;;;22.37;9.63;;;;;;;;;;6222953;28;20058;-57
2022/08/30 02:31:53;;;;;;;23.25;8.85;;;;;;;;;;6223239;28;20485;-56
2022/08/30 02:34:54;;;;;;;28.15;9.75;;;;;;;;;;6223455;28;20034;-57
2022/08/30 02:37:54;;;;;;;23.08;9.07;;;;;;;;;;6218935;28;20048;-57
2022/08/30 02:40:55;;;;;;;20.85;9.45;;;;;;;;;;6224807;28;20050;-55
2022/08/30 02:43:58;;;;;;;22.92;9.55;;;;;;;;;;6223667;28;20045;-56
2022/08/30 02:46:58;;;;;;;21.75;8.82;;;;;;;;;;6221964;28;20057;-58
2022/08/30 02:50:02;;;;;;;21.17;9.07;;;;;;;;;;6221782;28;20069;-57
2022/08/30 02:53:02;;;;;;;23.45;9.85;;;;;;;;;;6223922;28;20429;-57
2022/08/30 02:56:03;;;;;;;22.63;9.88;;;;;;;;;;6221534;28;20049;-57
2022/08/30 02:59:04;;;;;;;21.45;9.82;;;;;;;;;;6222486;28;20922;-56
2022/08/30 03:02:04;;;;;;;29.15;10.00;;;;;;;;;;6219740;28;20049;-56
2022/08/30 03:05:06;;;;;;;25.35;9.48;;;;;;;;;;6221916;28;20061;-56
2022/08/30 03:08:08;;;;;;;21.90;8.90;;;;;;;;;;6217898;28;20049;-56
2022/08/30 03:11:09;;;;;;;18.90;8.93;;;;;;;;;;6219956;28;20041;-57
2022/08/30 03:14:09;;;;;;;23.13;9.25;;;;;;;;;;6218070;28;20040;-57
2022/08/30 03:17:10;;;;;;;31.65;11.02;;;;;;;;;;6220827;28;20511;-57
2022/08/30 03:20:11;;;;;;;20.17;9.13;;;;;;;;;;6222715;28;20045;-57
2022/08/30 03:23:13;;;;;;;20.58;9.70;;;;;;;;;;6220304;28;20050;-57
2022/08/30 03:26:13;;;;;;;24.67;10.95;;;;;;;;;;6222659;28;20058;-58
2022/08/30 03:29:14;;;;;;;23.73;10.23;;;;;;;;;;6218891;28;20299;-58
2022/08/30 03:32:15;;;;;;;27.10;10.40;;;;;;;;;;6218106;28;20621;-58
2022/08/30 03:35:16;;;;;;;25.23;9.63;;;;;;;;;;6222377;28;20058;-56
2022/08/30 03:38:17;;;;;;;25.63;9.60;;;;;;;;;;6217279;28;20500;-57
2022/08/30 03:41:18;;;;;;;22.13;10.20;;;;;;;;;;6219069;28;20402;-56
2022/08/30 03:44:20;;;;;;;26.85;11.93;;;;;;;;;;6223357;28;20050;-58
2022/08/30 03:47:20;;;;;;;26.08;10.20;;;;;;;;;;6219156;28;20188;-56
2022/08/30 03:50:21;;;;;;;27.95;9.90;;;;;;;;;;6219548;28;20038;-56
2022/08/30 03:53:22;;;;;;;26.95;9.63;;;;;;;;;;6219906;28;20068;-56
2022/08/30 03:56:23;;;;;;;23.75;10.13;;;;;;;;;;6216746;28;20485;-58
2022/08/30 03:59:23;;;;;;;24.52;9.85;;;;;;;;;;6217659;28;20571;-57
2022/08/30 04:02:24;;;;;;;26.02;9.88;;;;;;;;;;6218167;28;20057;-58
2022/08/30 04:05:26;;;;;;;24.02;9.98;;;;;;;;;;6220582;28;20041;-58
2022/08/30 04:08:26;;;;;;;18.48;8.73;;;;;;;;;;6217791;28;20084;-57
2022/08/30 04:11:27;;;;;;;24.67;9.13;;;;;;;;;;6223005;28;20485;-58
2022/08/30 04:14:28;;;;;;;24.85;10.60;;;;;;;;;;6220700;28;20049;-57
2022/08/30 04:17:28;;;;;;;19.38;9.15;;;;;;;;;;6222665;28;20045;-57
2022/08/30 04:20:29;;;;;;;24.80;8.98;;;;;;;;;;6224632;28;20049;-57
2022/08/30 04:23:29;;;;;;;24.63;9.52;;;;;;;;;;6222304;28;20041;-56
2022/08/30 04:26:30;;;;;;;20.48;10.10;;;;;;;;;;6219547;28;20567;-58
2022/08/30 04:29:32;;;;;;;22.33;8.95;;;;;;;;;;6218764;28;20440;-57
2022/08/30 04:32:34;;;;;;;22.15;10.45;;;;;;;;;;6220614;28;20042;-57
2022/08/30 04:35:35;;;;;;;20.35;9.13;;;;;;;;;;6222937;28;20046;-57
2022/08/30 04:38:38;;;;;;;15.95;8.27;;;;;;;;;;6216093;28;20045;-57
2022/08/30 04:41:39;;;;;;;21.15;8.98;;;;;;;;;;6219305;28;20068;-57
2022/08/30 04:44:40;;;;;;;17.42;9.10;;;;;;;;;;6218951;28;20037;-56
2022/08/30 04:47:42;;;;;;;25.85;9.10;;;;;;;;;;6216729;28;20127;-57
2022/08/30 04:50:43;;;;;;;26.30;10.45;;;;;;;;;;6218557;28;20056;-57
2022/08/30 04:53:44;;;;;;;22.27;10.00;;;;;;;;;;6221120;28;20046;-56
2022/08/30 04:56:45;;;;;;;23.27;9.83;;;;;;;;;;6218686;28;20124;-57
2022/08/30 04:59:46;;;;;;;24.23;11.43;;;;;;;;;;6231009;28;20412;-57
2022/08/30 05:02:46;;;;;;;29.05;10.23;;;;;;;;;;6235420;28;20046;-56
2022/08/30 05:05:48;;;;;;;29.38;11.15;;;;;;;;;;6236496;28;20045;-55
2022/08/30 05:08:49;;;;;;;32.20;12.27;;;;;;;;;;6220944;28;20130;-57
2022/08/30 05:11:50;;;;;;;31.17;13.65;;;;;;;;;;6223254;28;20132;-56
2022/08/30 05:14:52;;;;;;;31.70;13.60;;;;;;;;;;6221374;28;20042;-56
2022/08/30 05:17:52;;;;;;;29.30;12.77;;;;;;;;;;6218839;28;20563;-57
2022/08/30 05:21:20;;;;;;;32.63;12.60;;;;;;;;;;6221528;28;20053;-54
2022/08/30 05:24:21;;;;;;;35.03;13.93;;;;;;;;;;6221006;28;20176;-57
2022/08/30 05:27:21;;;;;;;29.98;13.95;;;;;;;;;;6221783;28;20435;-56
2022/08/30 05:30:24;;;;;;;34.75;14.82;;;;;;;;;;6232585;28;20206;-57
2022/08/30 05:33:24;;;;;;;38.22;15.48;;;;;;;;;;6240500;28;20046;-56
2022/08/30 05:36:28;;;;;;;42.10;18.85;;;;;;;;;;6233719;28;20045;-57
2022/08/30 05:39:28;;;;;;;43.33;16.95;;;;;;;;;;6221437;28;20053;-57
2022/08/30 05:42:30;;;;;;;42.03;17.07;;;;;;;;;;6224369;28;20105;-56
2022/08/30 05:45:30;;;;;;;40.47;15.55;;;;;;;;;;6222165;28;20532;-56
2022/08/30 05:48:32;;;;;;;41.63;15.18;;;;;;;;;;6221520;28;20045;-57
2022/08/30 05:51:36;;;;;;;41.95;17.20;;;;;;;;;;6222547;28;20445;-57
2022/08/30 05:54:37;;;;;;;45.78;17.35;;;;;;;;;;6224380;28;20057;-57
2022/08/30 05:57:39;;;;;;;36.97;15.27;;;;;;;;;;6222622;28;20145;-56
2022/08/30 06:00:40;;;;;;;44.13;17.17;;;;;;;;;;6222648;28;20114;-56
2022/08/30 06:03:41;;;;;;;45.55;17.20;;;;;;;;;;6219847;28;20038;-57
2022/08/30 06:06:43;;;;;;;35.65;16.30;;;;;;;;;;6223072;28;20520;-58
2022/08/30 06:09:44;;;;;;;33.47;16.10;;;;;;;;;;6219662;28;20133;-57
2022/08/30 06:12:44;;;;;;;42.63;16.95;;;;;;;;;;6239643;28;20037;-57
2022/08/30 06:15:45;;;;;;;35.58;16.33;;;;;;;;;;6241369;28;20519;-57
2022/08/30 06:18:47;;;;;;;38.77;17.57;;;;;;;;;;6240314;28;20034;-58
2022/08/30 06:21:49;;;;;;;41.33;17.08;;;;;;;;;;6218736;28;20060;-57
2022/08/30 06:24:50;;;;;;;46.13;17.40;;;;;;;;;;6241339;28;20091;-58
2022/08/30 06:27:50;;;;;;;43.35;17.23;;;;;;;;;;6240473;28;20117;-57
2022/08/30 06:30:51;;;;;;;45.15;18.35;;;;;;;;;;6239715;28;20052;-58
2022/08/30 06:33:51;;;;;;;40.97;17.60;;;;;;;;;;6241090;28;20042;-57
2022/08/30 06:36:52;;;;;;;83.25;38.55;;;;;;;;;;6239692;28;20061;-57
2022/08/30 06:39:53;;;;;;;49.97;19.33;;;;;;;;;;6238861;28;20054;-57
2022/08/30 06:42:53;;;;;;;45.80;19.33;;;;;;;;;;6240126;28;20504;-54
2022/08/30 06:45:55;;;;;;;47.17;19.83;;;;;;;;;;6238424;28;20091;-58
2022/08/30 06:48:56;;;;;;;44.25;17.95;;;;;;;;;;6237965;28;20508;-57
2022/08/30 06:51:56;;;;;;;51.08;19.00;;;;;;;;;;6240096;28;20540;-57
2022/08/30 06:54:57;;;;;;;39.40;17.55;;;;;;;;;;6240236;28;20037;-56
2022/08/30 06:58:02;;;;;;;44.87;19.47;;;;;;;;;;6239852;28;20041;-57
2022/08/30 07:01:04;;;;;;;48.40;18.60;;;;;;;;;;6238825;28;20067;-57
2022/08/30 07:04:05;;;;;;;48.17;17.75;;;;;;;;;;6240369;28;20045;-57
2022/08/30 07:07:09;;;;;;;44.30;17.08;;;;;;;;;;6240067;28;20049;-57
2022/08/30 07:10:10;;;;;;;45.28;18.42;;;;;;;;;;6238380;28;21529;-57
2022/08/30 07:13:11;;;;;;;43.58;18.30;;;;;;;;;;6237601;28;20057;-55
2022/08/30 07:16:13;;;;;;;46.78;19.88;;;;;;;;;;6240004;28;20047;-58
2022/08/30 07:19:13;;;;;;;52.50;20.45;;;;;;;;;;6238598;28;20085;-58
2022/08/30 07:22:14;;;;;;;47.90;20.20;;;;;;;;;;6239400;28;20041;-57
2022/08/30 07:25:15;;;;;;;55.37;23.83;;;;;;;;;;6239727;28;20124;-57
2022/08/30 07:28:16;;;;;;;67.13;26.67;;;;;;;;;;6240312;28;20037;-57
2022/08/30 07:31:18;;;;;;;60.45;25.40;;;;;;;;;;6239647;28;20049;-58
2022/08/30 07:34:20;;;;;;;53.53;24.38;;;;;;;;;;6222543;28;20093;-57
2022/08/30 07:37:21;;;;;;;61.00;26.42;;;;;;;;;;6228645;28;20051;-57
2022/08/30 07:40:22;;;;;;;53.97;23.83;;;;;;;;;;6218908;28;20448;-58
2022/08/30 07:43:22;;;;;;;55.33;22.40;;;;;;;;;;6216798;28;20046;-57
2022/08/30 07:46:24;;;;;;;58.42;24.30;;;;;;;;;;6221851;28;20050;-57
2022/08/30 07:49:25;;;;;;;;;;;;;;;;;;6214427;28;20137;-57
2022/08/30 07:52:26;;;;;;;42.95;18.25;;;;;;;;;;6226291;28;20345;-57
2022/08/30 07:55:27;;;;;;;44.20;18.30;;;;;;;;;;6238895;28;20594;-58
2022/08/30 07:58:28;;;;;;;33.33;14.03;;;;;;;;;;6239661;28;20044;-55
2022/08/30 08:01:29;;;;;;;28.33;12.73;;;;;;;;;;6224252;28;20148;-57
2022/08/30 08:04:30;;;;;;;34.17;14.67;;;;;;;;;;6223470;28;20498;-58
2022/08/30 08:07:31;;;;;;;33.47;13.73;;;;;;;;;;6216426;28;20045;-57
2022/08/30 08:10:32;;;;;;;26.93;12.63;;;;;;;;;;6216754;28;20084;-58
2022/08/30 08:13:33;;;;;;;35.55;16.40;;;;;;;;;;6218531;28;20038;-56
2022/08/30 08:16:37;;;;;;;30.00;15.23;;;;;;;;;;6230647;28;20144;-55
2022/08/30 08:19:37;;;;;;;36.08;15.65;;;;;;;;;;6231396;28;20049;-56
2022/08/30 08:22:38;;;;;;;34.30;15.10;;;;;;;;;;6226709;28;20840;-58
2022/08/30 08:25:40;;;;;;;34.70;15.30;;;;;;;;;;6231856;28;20456;-57
2022/08/30 08:28:41;;;;;;;31.73;16.13;;;;;;;;;;6218174;28;20042;-57
2022/08/30 08:31:42;;;;;;;34.33;14.93;;;;;;;;;;6218453;28;20129;-57
2022/08/30 08:34:42;;;;;;;30.10;14.57;;;;;;;;;;6223260;28;20053;-57
2022/08/30 08:37:43;;;;;;;28.43;13.90;;;;;;;;;;6222193;28;20481;-57
2022/08/30 08:40:51;;;;;;;26.80;13.13;;;;;;;;;;6224974;28;20140;-58
2022/08/30 08:43:52;;;;;;;27.10;12.65;;;;;;;;;;6224491;28;20133;-58
2022/08/30 08:47:07;;;;;;;24.77;12.53;;;;;;;;;;6221340;28;20394;-57
2022/08/30 08:50:16;;;;;;;29.17;12.20;;;;;;;;;;6221886;28;20052;-58
2022/08/30 08:53:35;;;;;;;26.35;11.55;;;;;;;;;;6224435;28;20053;-58
2022/08/30 08:56:37;;;;;;;25.33;11.88;;;;;;;;;;6225578;28;20076;-58
2022/08/30 08:59:37;;;;;;;22.30;11.23;;;;;;;;;;6221661;28;20041;-58
2022/08/30 09:02:46;;;;;;;24.95;11.32;;;;;;;;;;6221754;28;20052;-56
2022/08/30 09:05:48;;;;;;;22.15;9.98;;;;;;;;;;6225183;28;20060;-55
2022/08/30 09:08:49;;;;;;;18.88;9.63;;;;;;;;;;6222938;28;20389;-57
2022/08/30 09:11:50;;;;;;;18.50;10.30;;;;;;;;;;6224874;28;20042;-57
2022/08/30 09:15:02;;;;;;;24.47;10.83;;;;;;;;;;6222570;28;20072;-57
2022/08/30 09:18:06;;;;;;;24.15;10.85;;;;;;;;;;6228622;28;20081;-58
2022/08/30 09:21:08;;;;;;;21.15;10.63;;;;;;;;;;6236891;28;20045;-58
2022/08/30 09:24:10;;;;;;;19.35;10.23;;;;;;;;;;6241197;28;20471;-58
2022/08/30 09:27:17;;;;;;;22.40;11.65;;;;;;;;;;6242425;28;20480;-58
2022/08/30 09:30:24;;;;;;;22.02;11.82;;;;;;;;;;6242655;28;20049;-57
2022/08/30 09:33:25;;;;;;;24.25;11.52;;;;;;;;;;6240869;28;20042;-55
2022/08/30 09:36:27;;;;;;;19.97;10.80;;;;;;;;;;6241874;28;20068;-57
2022/08/30 09:39:32;;;;;;;21.45;10.30;;;;;;;;;;6242099;28;20148;-57
2022/08/30 09:42:32;;;;;;;23.95;11.30;;;;;;;;;;6241580;28;20052;-57
2022/08/30 09:45:41;;;;;;;21.00;9.77;;;;;;;;;;6235809;28;20045;-57
2022/08/30 09:48:44;;;;;;;18.10;10.43;;;;;;;;;;6221571;28;20050;-58
2022/08/30 09:51:53;;;;;;;19.75;10.00;;;;;;;;;;6221039;28;20087;-55
2022/08/30 09:55:00;;;;;;;17.73;10.05;;;;;;;;;;6221406;28;20111;-58
2022/08/30 09:58:09;;;;;;;21.38;9.93;;;;;;;;;;6221895;28;20129;-56
2022/08/30 10:01:14;;;;;;;23.92;9.60;;;;;;;;;;6220397;28;20172;-56
2022/08/30 10:04:25;;;;;;;18.23;9.68;;;;;;;;;;6223795;28;20144;-57
2022/08/30 10:07:46;;;;;;;22.13;10.50;;;;;;;;;;6231885;28;20493;-58
2022/08/30 10:10:53;;;;;;;24.20;11.40;;;;;;;;;;6242104;28;20072;-58
2022/08/30 10:14:06;;;;;;;22.02;11.13;;;;;;;;;;6242507;28;20084;-57
2022/08/30 10:17:18;;;;;;;20.77;10.75;;;;;;;;;;6241582;28;20134;-57
2022/08/30 10:20:22;;;;;;;19.50;9.88;;;;;;;;;;6240271;28;20455;-60
2022/08/30 10:23:34;;;;;;;19.77;9.00;;;;;;;;;;6241882;28;20053;-54
2022/08/30 10:26:49;;;;;;;;;;;;;;;;;;6241923;28;20905;-58
2022/08/30 10:29:54;;;;;;;23.15;10.20;;;;;;;;;;6236242;28;19982;-59
2022/08/30 10:33:05;;;;;;;19.65;12.02;;;;;;;;;;6229578;28;20042;-58
2022/08/30 10:36:09;;;;;;;23.55;12.35;;;;;;;;;;6224910;28;20048;-59
2022/08/30 10:39:17;;;;;;;18.00;10.57;;;;;;;;;;6227098;28;20038;-59
2022/08/30 10:42:24;;;;;;;19.60;10.68;;;;;;;;;;6235472;28;20162;-59
2022/08/30 10:45:27;;;;;;;18.58;10.52;;;;;;;;;;6239372;28;20050;-57
2022/08/30 10:48:36;;;;;;;18.80;10.25;;;;;;;;;;6238814;28;20049;-57
2022/08/30 10:51:46;;;;;;;18.65;10.98;;;;;;;;;;6240418;28;20132;-58
2022/08/30 10:54:52;;;;;;;26.75;13.85;;;;;;;;;;6240113;28;20124;-58
2022/08/30 10:57:57;;;;;;;26.67;13.73;;;;;;;;;;6240228;28;20030;-58
2022/08/30 11:01:28;;;;;;;24.40;13.25;;;;;;;;;;6239108;28;20045;-59
2022/08/30 11:05:06;;;;;;;24.05;13.68;;;;;;;;;;6239270;28;20052;-59
2022/08/30 11:08:27;;;;;;;22.85;12.95;;;;;;;;;;6238164;28;20260;-56
2022/08/30 11:11:38;;;;;;;26.08;13.50;;;;;;;;;;6228733;28;20045;-57
2022/08/30 11:14:42;;;;;;;21.67;12.90;;;;;;;;;;6238107;28;20156;-57
2022/08/30 11:17:53;;;;;;;20.77;12.80;;;;;;;;;;6235981;28;20437;-58
2022/08/30 11:21:34;;;;;;;22.13;12.73;;;;;;;;;;6235269;28;20038;-57
2022/08/30 11:24:58;;;;;;;25.65;12.48;;;;;;;;;;6239955;28;20110;-56
2022/08/30 11:27:59;;;;;;;21.33;12.50;;;;;;;;;;6240410;28;20496;-57
2022/08/30 11:31:07;;;;;;;27.83;12.30;;;;;;;;;;6226846;28;20061;-57
2022/08/30 11:34:09;;;;;;;22.38;11.98;;;;;;;;;;6221966;28;20471;-58
2022/08/30 11:37:35;;;;;;;17.60;11.52;;;;;;;;;;6219782;28;20084;-59
2022/08/30 11:40:44;;;;;;;27.23;11.98;;;;;;;;;;6219166;28;20176;-58
2022/08/30 11:43:45;;;;;;;20.33;11.82;;;;;;;;;;6218224;28;20163;-57
2022/08/30 11:46:54;;;;;;;15.53;8.73;;;;;;;;;;6212378;28;20222;-58
2022/08/30 11:50:07;;;;;;;17.30;8.68;;;;;;;;;;6194881;28;20054;-56
2022/08/30 11:53:29;;;;;;;14.98;8.10;;;;;;;;;;6194087;28;20486;-57
2022/08/30 11:56:30;;;;;;;12.95;7.60;;;;;;;;;;6193232;28;20053;-57
2022/08/30 11:59:52;;;;;;;15.77;6.77;;;;;;;;;;6196102;28;20133;-56
2022/08/30 12:03:00;;;;;;;9.98;6.50;;;;;;;;;;6195737;28;20404;-57
2022/08/30 12:06:07;;;;;;;11.13;6.03;;;;;;;;;;6193995;28;20056;-57
2022/08/30 12:09:15;;;;;;;12.50;6.55;;;;;;;;;;6197497;28;20074;-57
2022/08/30 12:12:25;;;;;;;15.73;7.40;;;;;;;;;;6192908;28;20089;-55
2022/08/30 12:15:48;;;;;;;13.23;7.60;;;;;;;;;;6196619;28;20703;-58
2022/08/30 12:18:54;;;;;;;11.70;7.70;;;;;;;;;;6200849;28;20062;-57
2022/08/30 12:22:00;;;;;;;13.25;5.85;;;;;;;;;;6201473;28;20120;-57
2022/08/30 12:25:12;;;;;;;10.32;6.38;;;;;;;;;;6205599;28;20081;-58
2022/08/30 12:28:23;;;;;;;12.40;6.13;;;;;;;;;;6201589;28;20157;-58
2022/08/30 12:31:25;;;;;;;15.73;6.22;;;;;;;;;;6193810;28;20839;-58
2022/08/30 12:34:36;;;;;;;10.27;6.18;;;;;;;;;;6200007;28;20103;-58
2022/08/30 12:37:38;;;;;;;11.07;5.93;;;;;;;;;;6195829;28;20138;-58
2022/08/30 12:40:48;;;;;;;10.63;6.28;;;;;;;;;;6195969;28;21086;-57
2022/08/30 12:43:51;;;;;;;9.98;6.53;;;;;;;;;;6195536;28;20041;-58
2022/08/30 12:46:57;;;;;;;11.50;6.00;;;;;;;;;;6198335;28;20634;-58
2022/08/30 12:49:59;;;;;;;12.05;5.95;;;;;;;;;;6217497;28;20050;-58
2022/08/30 12:53:08;;;;;;;12.88;5.68;;;;;;;;;;6215709;28;20136;-57
2022/08/30 12:56:12;;;;;;;14.18;6.00;;;;;;;;;;6212534;28;20057;-58
2022/08/30 12:59:46;;;;;;;11.45;5.88;;;;;;;;;;6215882;28;20041;-58
2022/08/30 13:02:52;;;;;;;12.35;6.07;;;;;;;;;;6212361;28;20052;-58
2022/08/30 13:05:55;;;;;;;11.45;6.40;;;;;;;;;;6218382;28;20088;-56
2022/08/30 13:08:56;;;;;;;11.07;6.40;;;;;;;;;;6216928;28;20127;-58
2022/08/30 13:11:57;;;;;;;12.10;6.10;;;;;;;;;;6214649;28;20058;-58
2022/08/30 13:15:31;;;;;;;12.15;5.60;;;;;;;;;;6215950;28;20509;-59
2022/08/30 13:18:31;;;;;;;11.60;5.85;;;;;;;;;;6209947;28;20038;-58
2022/08/30 13:21:33;;;;;;;10.30;5.73;;;;;;;;;;6220347;28;20455;-57
2022/08/30 13:24:34;;;;;;;11.10;5.60;;;;;;;;;;6219394;28;20576;-58
2022/08/30 13:27:37;;;;;;;11.90;6.20;;;;;;;;;;6222313;28;20057;-58
2022/08/30 13:30:37;;;;;;;10.25;5.72;;;;;;;;;;6218452;28;20049;-58
2022/08/30 13:33:38;;;;;;;10.23;5.50;;;;;;;;;;6217226;28;20056;-57
2022/08/30 13:36:48;;;;;;;10.07;5.87;;;;;;;;;;6222422;28;20057;-58
2022/08/30 13:39:49;;;;;;;10.13;5.15;;;;;;;;;;6218031;28;20049;-58
2022/08/30 13:42:50;;;;;;;10.40;4.93;;;;;;;;;;6219379;28;20417;-58
2022/08/30 13:45:51;;;;;;;8.65;4.63;;;;;;;;;;6221369;28;20801;-58
2022/08/30 13:49:04;;;;;;;7.77;4.67;;;;;;;;;;6221818;28;20056;-59
2022/08/30 13:52:07;;;;;;;9.93;4.53;;;;;;;;;;6217132;28;20405;-58
2022/08/30 13:55:08;;;;;;;8.05;4.53;;;;;;;;;;6218590;28;20065;-58
2022/08/30 13:58:09;;;;;;;8.15;4.85;;;;;;;;;;6216907;28;20049;-57
2022/08/30 14:01:09;;;;;;;9.97;5.73;;;;;;;;;;6218140;28;20053;-56
2022/08/30 14:04:10;;;;;;;9.37;5.53;;;;;;;;;;6220141;28;20057;-59
2022/08/30 14:07:10;;;;;;;8.77;5.20;;;;;;;;;;6221329;28;20045;-59
2022/08/30 14:10:14;;;;;;;8.93;4.80;;;;;;;;;;6224523;28;20041;-58
2022/08/30 14:13:14;;;;;;;7.85;5.25;;;;;;;;;;6227066;28;20073;-58
2022/08/30 14:16:15;;;;;;;9.97;6.00;;;;;;;;;;6227867;28;20580;-56
2022/08/30 14:19:17;;;;;;;7.07;4.67;;;;;;;;;;6224145;28;20049;-58
2022/08/30 14:22:19;;;;;;;10.55;5.70;;;;;;;;;;6221436;28;20045;-56
2022/08/30 14:25:20;;;;;;;11.13;5.57;;;;;;;;;;6219131;28;20115;-57
2022/08/30 14:28:20;;;;;;;8.53;5.23;;;;;;;;;;6226780;28;20686;-57
2022/08/30 14:31:22;;;;;;;10.73;5.83;;;;;;;;;;6223428;28;20053;-57
2022/08/30 14:34:22;;;;;;;13.35;6.90;;;;;;;;;;6220658;28;20497;-57
2022/08/30 14:37:23;;;;;;;11.00;5.97;;;;;;;;;;6220624;28;20055;-58
2022/08/30 14:40:24;;;;;;;10.23;5.87;;;;;;;;;;6213725;28;20140;-58
2022/08/30 14:43:24;;;;;;;10.80;5.63;;;;;;;;;;6227546;28;20505;-59
2022/08/30 14:46:25;;;;;;;9.47;5.57;;;;;;;;;;6228024;28;20053;-59
2022/08/30 14:49:26;;;;;;;12.40;5.77;;;;;;;;;;6229000;28;20495;-60
2022/08/30 14:52:27;;;;;;;11.00;5.47;;;;;;;;;;6226850;28;20057;-59
2022/08/30 14:55:31;;;;;;;12.27;6.30;;;;;;;;;;6229187;28;20170;-59
2022/08/30 14:58:31;;;;;;;11.57;5.55;;;;;;;;;;6229791;28;20568;-58
2022/08/30 15:01:32;;;;;;;9.30;5.43;;;;;;;;;;6225364;28;20119;-58
2022/08/30 15:04:33;;;;;;;13.35;5.85;;;;;;;;;;6229525;28;20045;-59
2022/08/30 15:07:34;;;;;;;11.53;6.30;;;;;;;;;;6227788;28;20072;-59
2022/08/30 15:10:35;;;;;;;;;;;;;;;;;;6223578;28;20053;-59
2022/08/30 15:13:36;;;;;;;12.57;5.90;;;;;;;;;;6226979;28;20347;-59
2022/08/30 15:16:39;;;;;;;12.38;5.90;;;;;;;;;;6227536;28;20819;-60
2022/08/30 15:19:41;;;;;;;10.93;5.63;;;;;;;;;;6226045;28;20536;-57
2022/08/30 15:22:42;;;;;;;9.02;5.43;;;;;;;;;;6226002;28;20111;-57
2022/08/30 15:25:42;;;;;;;12.93;6.10;;;;;;;;;;6228110;28;20041;-58
2022/08/30 15:28:43;;;;;;;11.87;6.10;;;;;;;;;;6229539;28;20037;-58
2022/08/30 15:31:46;;;;;;;16.53;6.07;;;;;;;;;;6226129;28;20100;-57
2022/08/30 15:34:46;;;;;;;11.05;6.00;;;;;;;;;;6229394;28;20754;-58
2022/08/30 15:37:47;;;;;;;13.43;6.20;;;;;;;;;;6227801;28;20098;-59
2022/08/30 15:40:49;;;;;;;12.53;6.80;;;;;;;;;;6219083;28;20057;-59
2022/08/30 15:43:51;;;;;;;12.63;6.28;;;;;;;;;;6226100;28;20084;-57
2022/08/30 15:46:52;;;;;;;14.70;6.57;;;;;;;;;;6226157;28;20057;-57
2022/08/30 15:49:57;;;;;;;14.37;7.37;;;;;;;;;;6223190;28;20100;-59
2022/08/30 15:52:59;;;;;;;14.45;6.80;;;;;;;;;;6221061;28;20051;-57
2022/08/30 15:55:59;;;;;;;11.63;5.97;;;;;;;;;;6227589;28;20042;-58
2022/08/30 15:59:00;;;;;;;13.43;6.00;;;;;;;;;;6229133;28;20382;-56
2022/08/30 16:02:01;;;;;;;12.53;6.20;;;;;;;;;;6222273;28;20535;-56
2022/08/30 16:05:02;;;;;;;12.80;5.93;;;;;;;;;;6228370;28;20068;-59
2022/08/30 16:08:03;;;;;;;12.77;6.72;;;;;;;;;;6228339;28;20077;-58
2022/08/30 16:11:09;;;;;;;9.97;5.77;;;;;;;;;;6223882;28;20087;-58
2022/08/30 16:14:09;;;;;;;12.52;5.68;;;;;;;;;;6227839;28;21274;-59
2022/08/30 16:17:10;;;;;;;10.03;5.80;;;;;;;;;;6226967;28;20192;-57
2022/08/30 16:20:11;;;;;;;10.37;5.70;;;;;;;;;;6225590;28;20068;-57
2022/08/30 16:23:11;;;;;;;11.23;5.50;;;;;;;;;;6207066;28;20061;-58
2022/08/30 16:26:13;;;;;;;12.67;6.20;;;;;;;;;;6221906;28;20535;-59
2022/08/30 16:29:14;;;;;;;9.40;5.38;;;;;;;;;;6238019;28;20071;-57
2022/08/30 16:32:15;;;;;;;12.23;6.13;;;;;;;;;;6235338;28;20053;-57
2022/08/30 16:35:15;;;;;;;12.60;6.07;;;;;;;;;;6232470;28;20060;-59
2022/08/30 16:38:16;;;;;;;14.60;6.37;;;;;;;;;;6237188;28;20565;-58
2022/08/30 16:41:17;;;;;;;12.77;6.80;;;;;;;;;;6235939;28;20091;-59
2022/08/30 16:44:18;;;;;;;13.45;6.80;;;;;;;;;;6232434;28;20048;-58
2022/08/30 16:47:18;;;;;;;12.83;7.23;;;;;;;;;;6236044;28;20504;-57
2022/08/30 16:50:22;;;;;;;13.93;7.53;;;;;;;;;;6234655;28;20056;-58
2022/08/30 16:53:23;;;;;;;14.40;7.35;;;;;;;;;;6238177;28;20145;-56
2022/08/30 16:56:26;;;;;;;18.50;7.70;;;;;;;;;;6235530;28;20053;-60
2022/08/30 16:59:27;;;;;;;14.85;7.50;;;;;;;;;;6242049;28;20136;-60
2022/08/30 17:02:27;;;;;;;15.27;7.90;;;;;;;;;;6241552;28;20061;-60
2022/08/30 17:05:28;;;;;;;14.90;7.93;;;;;;;;;;6242440;28;20195;-61
2022/08/30 17:08:28;;;;;;;17.80;8.13;;;;;;;;;;6240589;28;20046;-61
2022/08/30 17:11:29;;;;;;;16.00;7.97;;;;;;;;;;6240730;28;20091;-61
2022/08/30 17:14:30;;;;;;;18.70;8.97;;;;;;;;;;6242693;28;20125;-57
2022/08/30 17:17:30;;;;;;;31.23;9.10;;;;;;;;;;6242742;28;20064;-58
2022/08/30 17:20:31;;;;;;;27.13;9.20;;;;;;;;;;6239745;28;20053;-53
2022/08/30 17:23:32;;;;;;;29.63;8.77;;;;;;;;;;6237693;28;21810;-57
2022/08/30 17:26:38;;;;;;;18.27;8.57;;;;;;;;;;6243163;28;20050;-58
2022/08/30 17:29:39;;;;;;;17.48;9.00;;;;;;;;;;6243007;28;20132;-57
2022/08/30 17:32:40;;;;;;;15.23;8.67;;;;;;;;;;6237610;28;20047;-56
2022/08/30 17:35:40;;;;;;;18.00;8.83;;;;;;;;;;6237436;28;20488;-57
2022/08/30 17:38:41;;;;;;;20.73;9.13;;;;;;;;;;6242856;28;20054;-58
2022/08/30 17:41:43;;;;;;;19.83;8.40;;;;;;;;;;6238944;28;20485;-58
2022/08/30 17:44:43;;;;;;;17.30;8.57;;;;;;;;;;6240695;28;20052;-55
2022/08/30 17:47:45;;;;;;;19.70;9.17;;;;;;;;;;6238894;28;20046;-56
2022/08/30 17:50:54;;;;;;;18.45;9.00;;;;;;;;;;6237812;28;20049;-57
2022/08/30 17:53:54;;;;;;;18.38;8.82;;;;;;;;;;6238896;28;20656;-58
2022/08/30 17:56:56;;;;;;;18.07;8.97;;;;;;;;;;6228123;28;20073;-56
2022/08/30 17:59:57;;;;;;;;;;;;;;;;;;6231585;28;20136;-58